sensor_id;sensor_type;location;lat;lon;timestamp;pressure;altitude;pressure_sealevel;temperature;humidity
25130;BME280;13308;50.860;13.664;2023-02-10T06:57:32;98470.16;;;-0.46;100.00
25130;BME280;13308;50.860;13.664;2023-02-10T06:59:57;98472.50;;;-0.53;100.00
25130;BME280;13308;50.860;13.664;2023-02-10T07:02:24;98487.13;;;-0.54;100.00
25130;BME280;13308;50.860;13.664;2023-02-10T07:04:50;98488.66;;;-0.61;100.00
25130;BME280;13308;50.860;13.664;2023-02-10T07:07:15;98490.34;;;-0.52;100.00
25130;BME280;13308;50.860;13.664;2023-02-10T07:09:40;98478.47;;;-0.42;100.00
25130;BME280;13308;50.860;13.664;2023-02-10T07:12:06;98484.06;;;-0.39;100.00
25130;BME280;13308;50.860;13.664;2023-02-10T07:14:31;98498.09;;;-0.37;100.00
25130;BME280;13308;50.860;13.664;2023-02-10T07:16:56;98496.50;;;-0.38;100.00
25130;BME280;13308;50.860;13.664;2023-02-10T07:19:22;98493.91;;;-0.43;100.00
25130;BME280;13308;50.860;13.664;2023-02-10T07:21:47;98495.41;;;-0.37;100.00
25130;BME280;13308;50.860;13.664;2023-02-10T07:24:12;98495.41;;;-0.15;100.00
25130;BME280;13308;50.860;13.664;2023-02-10T07:26:39;98501.34;;;-0.35;100.00
25130;BME280;13308;50.860;13.664;2023-02-10T07:29:05;98510.75;;;-0.32;100.00
25130;BME280;13308;50.860;13.664;2023-02-10T07:31:31;98505.09;;;-0.22;100.00
25130;BME280;13308;50.860;13.664;2023-02-10T07:34:00;98505.53;;;-0.29;100.00
25130;BME280;13308;50.860;13.664;2023-02-10T07:36:25;98511.31;;;-0.22;100.00
25130;BME280;13308;50.860;13.664;2023-02-10T07:38:50;98517.91;;;-0.14;100.00
25130;BME280;13308;50.860;13.664;2023-02-10T07:41:15;98524.34;;;-0.24;100.00
25130;BME280;13308;50.860;13.664;2023-02-10T07:43:41;98512.63;;;-0.19;100.00
25130;BME280;13308;50.860;13.664;2023-02-10T07:46:12;98511.31;;;-0.22;100.00
25130;BME280;13308;50.860;13.664;2023-02-10T07:48:37;98505.50;;;-0.07;100.00
25130;BME280;13308;50.860;13.664;2023-02-10T07:51:03;98505.22;;;-0.06;100.00
25130;BME280;13308;50.860;13.664;2023-02-10T07:53:28;98499.78;;;-0.06;100.00
25130;BME280;13308;50.860;13.664;2023-02-10T07:55:54;98508.34;;;0.10;100.00
25130;BME280;13308;50.860;13.664;2023-02-10T07:58:22;98515.38;;;0.11;100.00
25130;BME280;13308;50.860;13.664;2023-02-10T08:00:47;98518.59;;;0.13;100.00
25130;BME280;13308;50.860;13.664;2023-02-10T08:03:13;98520.00;;;0.10;100.00
25130;BME280;13308;50.860;13.664;2023-02-10T08:05:39;98519.19;;;0.10;100.00
25130;BME280;13308;50.860;13.664;2023-02-10T08:08:04;98515.63;;;0.01;100.00
25130;BME280;13308;50.860;13.664;2023-02-10T08:10:30;98518.13;;;0.19;100.00
25130;BME280;13308;50.860;13.664;2023-02-10T08:12:55;98514.41;;;0.07;100.00
25130;BME280;13308;50.860;13.664;2023-02-10T08:15:20;98513.47;;;0.11;100.00
25130;BME280;13308;50.860;13.664;2023-02-10T08:17:48;98524.06;;;0.21;100.00
25130;BME280;13308;50.860;13.664;2023-02-10T08:20:13;98533.50;;;0.24;100.00
25130;BME280;13308;50.860;13.664;2023-02-10T08:22:39;98529.56;;;0.30;100.00
25130;BME280;13308;50.860;13.664;2023-02-10T08:25:04;98528.03;;;0.15;100.00
25130;BME280;13308;50.860;13.664;2023-02-10T08:27:30;98529.28;;;0.40;100.00
25130;BME280;13308;50.860;13.664;2023-02-10T08:29:55;98537.94;;;0.42;100.00
25130;BME280;13308;50.860;13.664;2023-02-10T08:32:21;98545.69;;;0.35;100.00
25130;BME280;13308;50.860;13.664;2023-02-10T08:34:47;98544.34;;;0.24;100.00
25130;BME280;13308;50.860;13.664;2023-02-10T08:37:14;98528.44;;;0.31;100.00
25130;BME280;13308;50.860;13.664;2023-02-10T08:39:39;98524.66;;;0.40;100.00
25130;BME280;13308;50.860;13.664;2023-02-10T08:42:04;98518.00;;;0.46;100.00
25130;BME280;13308;50.860;13.664;2023-02-10T08:44:30;98530.31;;;0.52;100.00
25130;BME280;13308;50.860;13.664;2023-02-10T08:46:55;98529.28;;;0.40;100.00
25130;BME280;13308;50.860;13.664;2023-02-10T08:49:21;98529.63;;;0.47;100.00
25130;BME280;13308;50.860;13.664;2023-02-10T08:51:49;98534.44;;;0.50;100.00
25130;BME280;13308;50.860;13.664;2023-02-10T08:54:15;98525.84;;;0.48;100.00
25130;BME280;13308;50.860;13.664;2023-02-10T08:56:40;98534.19;;;0.60;100.00
25130;BME280;13308;50.860;13.664;2023-02-10T08:59:05;98538.56;;;0.69;100.00
25130;BME280;13308;50.860;13.664;2023-02-10T09:01:31;98548.06;;;0.58;100.00
25130;BME280;13308;50.860;13.664;2023-02-10T09:03:56;98553.03;;;0.65;100.00
25130;BME280;13308;50.860;13.664;2023-02-10T09:06:28;98553.91;;;0.74;100.00
25130;BME280;13308;50.860;13.664;2023-02-10T09:08:55;98567.22;;;0.84;100.00
25130;BME280;13308;50.860;13.664;2023-02-10T09:11:22;98562.34;;;0.72;100.00
25130;BME280;13308;50.860;13.664;2023-02-10T09:13:49;98571.31;;;0.73;100.00
25130;BME280;13308;50.860;13.664;2023-02-10T09:16:15;98574.50;;;0.75;100.00
25130;BME280;13308;50.860;13.664;2023-02-10T09:18:40;98576.66;;;0.95;100.00
25130;BME280;13308;50.860;13.664;2023-02-10T09:21:05;98571.81;;;0.83;100.00
25130;BME280;13308;50.860;13.664;2023-02-10T09:23:31;98582.25;;;0.90;100.00
25130;BME280;13308;50.860;13.664;2023-02-10T09:25:58;98583.22;;;0.94;100.00
25130;BME280;13308;50.860;13.664;2023-02-10T09:28:24;98582.06;;;0.86;100.00
25130;BME280;13308;50.860;13.664;2023-02-10T09:30:50;98594.78;;;1.08;100.00
25130;BME280;13308;50.860;13.664;2023-02-10T09:33:15;98590.44;;;1.07;100.00
25130;BME280;13308;50.860;13.664;2023-02-10T09:35:41;98593.97;;;1.07;100.00
25130;BME280;13308;50.860;13.664;2023-02-10T09:38:07;98596.75;;;1.24;100.00
25130;BME280;13308;50.860;13.664;2023-02-10T09:40:40;98598.06;;;1.27;100.00
25130;BME280;13308;50.860;13.664;2023-02-10T09:43:18;98592.97;;;1.34;100.00
25130;BME280;13308;50.860;13.664;2023-02-10T09:45:59;98587.41;;;1.47;100.00
25130;BME280;13308;50.860;13.664;2023-02-10T09:48:32;98591.41;;;1.50;100.00
25130;BME280;13308;50.860;13.664;2023-02-10T09:51:11;98586.72;;;1.33;100.00
25130;BME280;13308;50.860;13.664;2023-02-10T09:53:40;98588.66;;;1.33;100.00
25130;BME280;13308;50.860;13.664;2023-02-10T09:56:11;98584.59;;;1.22;100.00
25130;BME280;13308;50.860;13.664;2023-02-10T09:58:53;98571.19;;;1.25;100.00
25130;BME280;13308;50.860;13.664;2023-02-10T10:01:40;98576.03;;;1.37;100.00
25130;BME280;13308;50.860;13.664;2023-02-10T10:04:15;98566.13;;;1.41;100.00
25130;BME280;13308;50.860;13.664;2023-02-10T10:07:20;98576.06;;;1.54;100.00
25130;BME280;13308;50.860;13.664;2023-02-10T10:12:51;98567.75;;;1.59;100.00
25130;BME280;13308;50.860;13.664;2023-02-10T10:15:17;98582.00;;;1.64;100.00
25130;BME280;13308;50.860;13.664;2023-02-10T10:18:10;98577.22;;;1.70;100.00
25130;BME280;13308;50.860;13.664;2023-02-10T10:23:42;98573.22;;;1.93;100.00
25130;BME280;13308;50.860;13.664;2023-02-10T10:26:30;98586.19;;;1.87;100.00
25130;BME280;13308;50.860;13.664;2023-02-10T10:29:27;98579.78;;;1.75;100.00
25130;BME280;13308;50.860;13.664;2023-02-10T10:32:04;98568.91;;;2.00;100.00
25130;BME280;13308;50.860;13.664;2023-02-10T10:34:39;98572.41;;;1.92;100.00
25130;BME280;13308;50.860;13.664;2023-02-10T10:37:14;98573.84;;;1.90;100.00
25130;BME280;13308;50.860;13.664;2023-02-10T10:39:45;98580.28;;;1.94;100.00
25130;BME280;13308;50.860;13.664;2023-02-10T10:42:54;98578.66;;;1.84;100.00
25130;BME280;13308;50.860;13.664;2023-02-10T10:45:20;98570.34;;;1.81;100.00
25130;BME280;13308;50.860;13.664;2023-02-10T10:47:52;98567.31;;;1.99;100.00
25130;BME280;13308;50.860;13.664;2023-02-10T10:50:21;98573.25;;;2.10;100.00
25130;BME280;13308;50.860;13.664;2023-02-10T10:52:49;98570.03;;;2.16;100.00
25130;BME280;13308;50.860;13.664;2023-02-10T10:55:38;98562.66;;;2.34;100.00
25130;BME280;13308;50.860;13.664;2023-02-10T10:58:17;98568.72;;;2.48;100.00
25130;BME280;13308;50.860;13.664;2023-02-10T11:00:51;98564.69;;;2.54;100.00
25130;BME280;13308;50.860;13.664;2023-02-10T11:03:16;98570.00;;;2.25;100.00
25130;BME280;13308;50.860;13.664;2023-02-10T11:05:43;98563.28;;;2.31;100.00
25130;BME280;13308;50.860;13.664;2023-02-10T11:08:27;98570.53;;;2.01;100.00
25130;BME280;13308;50.860;13.664;2023-02-10T11:10:58;98565.06;;;2.01;100.00
25130;BME280;13308;50.860;13.664;2023-02-10T11:13:29;98570.19;;;2.20;100.00
25130;BME280;13308;50.860;13.664;2023-02-10T11:18:29;98563.28;;;2.31;100.00
25130;BME280;13308;50.860;13.664;2023-02-10T11:21:01;98564.91;;;2.15;100.00
25130;BME280;13308;50.860;13.664;2023-02-10T11:23:27;98569.22;;;2.24;100.00
25130;BME280;13308;50.860;13.664;2023-02-10T11:26:06;98570.69;;;2.22;100.00
25130;BME280;13308;50.860;13.664;2023-02-10T11:28:33;98571.75;;;2.46;100.00
25130;BME280;13308;50.860;13.664;2023-02-10T11:31:12;98574.78;;;2.62;99.81
25130;BME280;13308;50.860;13.664;2023-02-10T11:33:55;98581.84;;;2.46;99.37
25130;BME280;13308;50.860;13.664;2023-02-10T11:36:30;98574.97;;;2.48;98.55
25130;BME280;13308;50.860;13.664;2023-02-10T11:39:02;98579.69;;;2.77;98.45
25130;BME280;13308;50.860;13.664;2023-02-10T11:41:30;98579.69;;;2.85;96.84
25130;BME280;13308;50.860;13.664;2023-02-10T11:43:55;98582.44;;;2.77;97.10
25130;BME280;13308;50.860;13.664;2023-02-10T11:46:29;98584.88;;;2.61;97.49
25130;BME280;13308;50.860;13.664;2023-02-10T11:49:04;98581.16;;;2.66;98.14
25130;BME280;13308;50.860;13.664;2023-02-10T11:51:31;98586.16;;;2.64;97.07
25130;BME280;13308;50.860;13.664;2023-02-10T11:53:57;98592.84;;;2.75;97.55
25130;BME280;13308;50.860;13.664;2023-02-10T11:57:01;98587.28;;;2.63;97.56
25130;BME280;13308;50.860;13.664;2023-02-10T12:00:12;98589.19;;;2.54;97.40
25130;BME280;13308;50.860;13.664;2023-02-10T12:05:39;98591.78;;;2.25;99.29
25130;BME280;13308;50.860;13.664;2023-02-10T12:08:19;98596.56;;;2.62;99.39
25130;BME280;13308;50.860;13.664;2023-02-10T12:11:14;98600.38;;;2.78;97.87
25130;BME280;13308;50.860;13.664;2023-02-10T12:17:01;98590.47;;;2.56;97.27
25130;BME280;13308;50.860;13.664;2023-02-10T12:19:40;98590.47;;;2.65;96.72
25130;BME280;13308;50.860;13.664;2023-02-10T12:25:23;98593.31;;;2.77;96.65
25130;BME280;13308;50.860;13.664;2023-02-10T12:28:19;98586.31;;;2.67;96.76
25130;BME280;13308;50.860;13.664;2023-02-10T12:30:57;98596.88;;;2.69;96.88
25130;BME280;13308;50.860;13.664;2023-02-10T12:33:45;98590.94;;;2.67;96.63
25130;BME280;13308;50.860;13.664;2023-02-10T12:36:21;98588.88;;;2.64;96.60
25130;BME280;13308;50.860;13.664;2023-02-10T12:39:00;98587.91;;;2.60;96.89
25130;BME280;13308;50.860;13.664;2023-02-10T12:41:40;98598.03;;;2.42;97.36
25130;BME280;13308;50.860;13.664;2023-02-10T12:47:27;98589.88;;;2.34;98.39
25130;BME280;13308;50.860;13.664;2023-02-10T12:52:51;98583.78;;;2.20;99.90
25130;BME280;13308;50.860;13.664;2023-02-10T12:55:23;98588.13;;;2.12;100.00
25130;BME280;13308;50.860;13.664;2023-02-10T12:57:59;98591.63;;;2.21;100.00
25130;BME280;13308;50.860;13.664;2023-02-10T13:00:35;98588.91;;;2.30;100.00
25130;BME280;13308;50.860;13.664;2023-02-10T13:03:10;98569.69;;;2.35;99.65
25130;BME280;13308;50.860;13.664;2023-02-10T13:05:45;98575.00;;;2.31;100.00
25130;BME280;13308;50.860;13.664;2023-02-10T13:08:16;98570.31;;;2.40;99.64
25130;BME280;13308;50.860;13.664;2023-02-10T13:10:45;98578.31;;;2.45;98.00
25130;BME280;13308;50.860;13.664;2023-02-10T13:13:27;98567.94;;;2.47;97.91
25130;BME280;13308;50.860;13.664;2023-02-10T13:16:18;98572.88;;;2.54;97.93
25130;BME280;13308;50.860;13.664;2023-02-10T13:18:50;98568.53;;;2.53;97.46
25130;BME280;13308;50.860;13.664;2023-02-10T13:21:23;98563.41;;;2.51;97.92
25130;BME280;13308;50.860;13.664;2023-02-10T13:24:21;98570.94;;;2.63;97.46
25130;BME280;13308;50.860;13.664;2023-02-10T13:26:57;98577.47;;;2.70;96.64
25130;BME280;13308;50.860;13.664;2023-02-10T13:34:50;98559.44;;;2.40;98.02
25130;BME280;13308;50.860;13.664;2023-02-10T13:37:43;98565.19;;;2.56;98.00
25130;BME280;13308;50.860;13.664;2023-02-10T13:40:33;98574.47;;;2.55;97.70
25130;BME280;13308;50.860;13.664;2023-02-10T13:43:03;98585.56;;;2.41;97.54
25130;BME280;13308;50.860;13.664;2023-02-10T13:45:31;98576.72;;;2.53;97.38
25130;BME280;13308;50.860;13.664;2023-02-10T13:48:35;98575.59;;;2.45;97.61
25130;BME280;13308;50.860;13.664;2023-02-10T13:51:06;98579.78;;;2.34;98.37
25130;BME280;13308;50.860;13.664;2023-02-10T13:59:22;98563.09;;;2.53;97.63
25130;BME280;13308;50.860;13.664;2023-02-10T14:02:11;98551.03;;;2.71;96.65
25130;BME280;13308;50.860;13.664;2023-02-10T14:04:44;98548.03;;;2.64;96.30
25130;BME280;13308;50.860;13.664;2023-02-10T14:15:30;98541.09;;;2.75;96.26
25130;BME280;13308;50.860;13.664;2023-02-10T14:18:02;98536.00;;;2.65;96.14
25130;BME280;13308;50.860;13.664;2023-02-10T14:20:33;98532.75;;;2.80;95.56
25130;BME280;13308;50.860;13.664;2023-02-10T14:23:00;98537.88;;;2.73;95.26
25130;BME280;13308;50.860;13.664;2023-02-10T14:25:32;98542.34;;;2.86;95.32
25130;BME280;13308;50.860;13.664;2023-02-10T14:27:58;98534.81;;;2.83;95.32
25130;BME280;13308;50.860;13.664;2023-02-10T14:30:33;98546.19;;;2.85;94.72
25130;BME280;13308;50.860;13.664;2023-02-10T14:33:01;98552.41;;;2.94;94.54
25130;BME280;13308;50.860;13.664;2023-02-10T14:35:27;98551.94;;;2.92;94.75
25130;BME280;13308;50.860;13.664;2023-02-10T14:37:55;98548.44;;;2.83;94.45
25130;BME280;13308;50.860;13.664;2023-02-10T14:40:22;98547.41;;;2.96;94.15
25130;BME280;13308;50.860;13.664;2023-02-10T14:42:48;98538.78;;;2.94;94.49
25130;BME280;13308;50.860;13.664;2023-02-10T14:45:23;98539.38;;;2.99;93.91
25130;BME280;13308;50.860;13.664;2023-02-10T14:47:49;98534.56;;;3.05;93.75
25130;BME280;13308;50.860;13.664;2023-02-10T14:50:32;98532.31;;;3.07;93.78
25130;BME280;13308;50.860;13.664;2023-02-10T14:52:59;98528.78;;;3.06;93.45
25130;BME280;13308;50.860;13.664;2023-02-10T15:00:34;98526.00;;;3.15;93.15
25130;BME280;13308;50.860;13.664;2023-02-10T15:03:00;98527.72;;;3.28;91.99
25130;BME280;13308;50.860;13.664;2023-02-10T15:05:37;98522.13;;;3.24;92.30
25130;BME280;13308;50.860;13.664;2023-02-10T15:08:03;98529.03;;;3.22;91.95
25130;BME280;13308;50.860;13.664;2023-02-10T15:10:38;98518.69;;;3.36;91.20
25130;BME280;13308;50.860;13.664;2023-02-10T15:13:05;98525.59;;;3.33;91.77
25130;BME280;13308;50.860;13.664;2023-02-10T15:15:34;98514.19;;;3.40;91.74
25130;BME280;13308;50.860;13.664;2023-02-10T15:18:05;98511.66;;;3.35;91.20
25130;BME280;13308;50.860;13.664;2023-02-10T15:20:33;98514.78;;;3.16;91.43
25130;BME280;13308;50.860;13.664;2023-02-10T15:30:46;98505.31;;;2.85;92.82
25130;BME280;13308;50.860;13.664;2023-02-10T15:33:18;98510.00;;;2.76;93.56
25130;BME280;13308;50.860;13.664;2023-02-10T15:35:53;98514.06;;;2.61;94.32
25130;BME280;13308;50.860;13.664;2023-02-10T15:38:19;98505.63;;;2.46;94.65
25130;BME280;13308;50.860;13.664;2023-02-10T15:40:56;98502.59;;;2.47;94.71
25130;BME280;13308;50.860;13.664;2023-02-10T15:43:30;98504.38;;;2.35;94.60
25130;BME280;13308;50.860;13.664;2023-02-10T15:46:12;98491.91;;;2.17;95.63
25130;BME280;13308;50.860;13.664;2023-02-10T15:48:39;98486.78;;;2.07;96.85
25130;BME280;13308;50.860;13.664;2023-02-10T15:51:14;98484.75;;;1.95;97.15
25130;BME280;13308;50.860;13.664;2023-02-10T15:53:44;98485.72;;;1.91;97.60
25130;BME280;13308;50.860;13.664;2023-02-10T15:56:09;98476.13;;;1.76;98.58
25130;BME280;13308;50.860;13.664;2023-02-10T15:58:35;98483.63;;;1.71;98.86
25130;BME280;13308;50.860;13.664;2023-02-10T16:01:00;98475.97;;;1.56;99.00
25130;BME280;13308;50.860;13.664;2023-02-10T16:03:25;98477.25;;;1.50;99.61
25130;BME280;13308;50.860;13.664;2023-02-10T16:05:51;98473.84;;;1.44;100.00
25130;BME280;13308;50.860;13.664;2023-02-10T16:08:20;98472.25;;;1.35;100.00
25130;BME280;13308;50.860;13.664;2023-02-10T16:10:46;98475.78;;;1.27;100.00
25130;BME280;13308;50.860;13.664;2023-02-10T16:13:13;98472.56;;;1.16;100.00
25130;BME280;13308;50.860;13.664;2023-02-10T16:15:40;98477.81;;;1.13;100.00
25130;BME280;13308;50.860;13.664;2023-02-10T16:18:05;98476.69;;;1.05;100.00
25130;BME280;13308;50.860;13.664;2023-02-10T16:20:32;98477.13;;;0.99;100.00
25130;BME280;13308;50.860;13.664;2023-02-10T16:22:58;98479.53;;;0.92;100.00
25130;BME280;13308;50.860;13.664;2023-02-10T16:25:25;98483.06;;;0.92;100.00
25130;BME280;13308;50.860;13.664;2023-02-10T16:27:51;98483.03;;;0.84;100.00
25130;BME280;13308;50.860;13.664;2023-02-10T16:30:26;98486.81;;;0.74;100.00
25130;BME280;13308;50.860;13.664;2023-02-10T16:32:53;98480.59;;;0.74;100.00
25130;BME280;13308;50.860;13.664;2023-02-10T16:35:18;98476.41;;;0.68;100.00
25130;BME280;13308;50.860;13.664;2023-02-10T16:37:44;98481.66;;;0.64;100.00
25130;BME280;13308;50.860;13.664;2023-02-10T16:40:30;98494.72;;;0.62;100.00
25130;BME280;13308;50.860;13.664;2023-02-10T16:42:55;98484.34;;;0.56;100.00
25130;BME280;13308;50.860;13.664;2023-02-10T16:45:22;98485.34;;;0.60;100.00
25130;BME280;13308;50.860;13.664;2023-02-10T16:47:48;98477.50;;;0.58;100.00
25130;BME280;13308;50.860;13.664;2023-02-10T16:50:52;98478.75;;;0.52;100.00
25130;BME280;13308;50.860;13.664;2023-02-10T16:53:18;98479.19;;;0.46;100.00
25130;BME280;13308;50.860;13.664;2023-02-10T16:55:43;98475.81;;;0.40;100.00
25130;BME280;13308;50.860;13.664;2023-02-10T16:58:13;98480.13;;;0.41;100.00
25130;BME280;13308;50.860;13.664;2023-02-10T17:00:39;98483.66;;;0.42;100.00
25130;BME280;13308;50.860;13.664;2023-02-10T17:03:04;98489.56;;;0.44;100.00
25130;BME280;13308;50.860;13.664;2023-02-10T17:05:29;98483.66;;;0.42;100.00
25130;BME280;13308;50.860;13.664;2023-02-10T17:07:57;98487.97;;;0.43;100.00
25130;BME280;13308;50.860;13.664;2023-02-10T17:10:25;98482.88;;;0.50;100.00
25130;BME280;13308;50.860;13.664;2023-02-10T17:12:51;98490.16;;;0.41;100.00
25130;BME280;13308;50.860;13.664;2023-02-10T17:15:16;98494.13;;;0.35;100.00
25130;BME280;13308;50.860;13.664;2023-02-10T17:17:42;98493.16;;;0.31;100.00
25130;BME280;13308;50.860;13.664;2023-02-10T17:20:20;98486.16;;;0.30;100.00
25130;BME280;13308;50.860;13.664;2023-02-10T17:22:45;98488.75;;;0.43;100.00
25130;BME280;13308;50.860;13.664;2023-02-10T17:25:10;98489.09;;;0.42;100.00
25130;BME280;13308;50.860;13.664;2023-02-10T17:27:36;98491.28;;;0.40;100.00
25130;BME280;13308;50.860;13.664;2023-02-10T17:30:02;98490.84;;;0.46;100.00
25130;BME280;13308;50.860;13.664;2023-02-10T17:32:27;98486.59;;;0.54;100.00
25130;BME280;13308;50.860;13.664;2023-02-10T17:34:53;98481.81;;;0.59;100.00
25130;BME280;13308;50.860;13.664;2023-02-10T17:37:18;98480.50;;;0.57;100.00
25130;BME280;13308;50.860;13.664;2023-02-10T17:39:44;98483.09;;;0.62;100.00
25130;BME280;13308;50.860;13.664;2023-02-10T17:42:10;98481.66;;;0.64;100.00
25130;BME280;13308;50.860;13.664;2023-02-10T17:44:35;98468.88;;;0.65;100.00
25130;BME280;13308;50.860;13.664;2023-02-10T17:47:01;98475.16;;;0.74;100.00
25130;BME280;13308;50.860;13.664;2023-02-10T17:49:29;98472.56;;;0.69;100.00
25130;BME280;13308;50.860;13.664;2023-02-10T17:51:55;98474.31;;;0.65;100.00
25130;BME280;13308;50.860;13.664;2023-02-10T17:54:20;98467.59;;;0.62;100.00
25130;BME280;13308;50.860;13.664;2023-02-10T17:56:46;98476.88;;;0.70;100.00
25130;BME280;13308;50.860;13.664;2023-02-10T17:59:12;98479.00;;;0.73;100.00
25130;BME280;13308;50.860;13.664;2023-02-10T18:01:38;98487.63;;;0.75;100.00
25130;BME280;13308;50.860;13.664;2023-02-10T18:04:03;98497.19;;;0.72;100.00
25130;BME280;13308;50.860;13.664;2023-02-10T18:06:29;98495.09;;;0.69;100.00
25130;BME280;13308;50.860;13.664;2023-02-10T18:08:56;98486.81;;;0.74;100.00
25130;BME280;13308;50.860;13.664;2023-02-10T18:11:22;98492.59;;;0.81;100.00
25130;BME280;13308;50.860;13.664;2023-02-10T18:13:48;98484.59;;;0.76;100.00
25130;BME280;13308;50.860;13.664;2023-02-10T18:16:15;98489.38;;;0.79;100.00
25130;BME280;13308;50.860;13.664;2023-02-10T18:18:41;98491.44;;;0.74;100.00
25130;BME280;13308;50.860;13.664;2023-02-10T18:21:13;98486.63;;;0.71;100.00
25130;BME280;13308;50.860;13.664;2023-02-10T18:23:38;98494.78;;;0.71;100.00
25130;BME280;13308;50.860;13.664;2023-02-10T18:26:04;98478.00;;;0.69;100.00
25130;BME280;13308;50.860;13.664;2023-02-10T18:28:29;98481.19;;;0.71;100.00
25130;BME280;13308;50.860;13.664;2023-02-10T18:30:58;98474.97;;;0.70;100.00
25130;BME280;13308;50.860;13.664;2023-02-10T18:33:24;98466.38;;;0.77;100.00
25130;BME280;13308;50.860;13.664;2023-02-10T18:35:49;98468.13;;;0.73;100.00
25130;BME280;13308;50.860;13.664;2023-02-10T18:38:15;98466.56;;;0.89;100.00
25130;BME280;13308;50.860;13.664;2023-02-10T18:40:41;98466.56;;;0.89;100.00
25130;BME280;13308;50.860;13.664;2023-02-10T18:43:07;98468.31;;;0.85;100.00
25130;BME280;13308;50.860;13.664;2023-02-10T18:45:34;98462.94;;;1.02;100.00
25130;BME280;13308;50.860;13.664;2023-02-10T18:48:00;98466.59;;;1.06;100.00
25130;BME280;13308;50.860;13.664;2023-02-10T18:50:25;98457.69;;;1.14;100.00
25130;BME280;13308;50.860;13.664;2023-02-10T18:52:50;98465.88;;;1.22;100.00
25130;BME280;13308;50.860;13.664;2023-02-10T18:55:16;98467.31;;;1.37;99.52
25130;BME280;13308;50.860;13.664;2023-02-10T18:57:42;98481.06;;;1.32;99.33
25130;BME280;13308;50.860;13.664;2023-02-10T19:00:08;98475.94;;;1.39;98.42
25130;BME280;13308;50.860;13.664;2023-02-10T19:02:35;98474.66;;;1.45;98.22
25130;BME280;13308;50.860;13.664;2023-02-10T19:05:02;98481.25;;;1.52;97.31
25130;BME280;13308;50.860;13.664;2023-02-10T19:07:27;98476.28;;;1.54;96.89
25130;BME280;13308;50.860;13.664;2023-02-10T19:09:52;98467.00;;;1.55;96.84
25130;BME280;13308;50.860;13.664;2023-02-10T19:12:18;98478.03;;;1.50;96.49
25130;BME280;13308;50.860;13.664;2023-02-10T19:14:44;98479.81;;;1.55;96.00
25130;BME280;13308;50.860;13.664;2023-02-10T19:17:10;98477.09;;;1.55;95.96
25130;BME280;13308;50.860;13.664;2023-02-10T19:19:36;98475.97;;;1.56;95.61
25130;BME280;13308;50.860;13.664;2023-02-10T19:22:01;98474.38;;;1.55;95.17
25130;BME280;13308;50.860;13.664;2023-02-10T19:24:27;98483.97;;;1.61;94.48
25130;BME280;13308;50.860;13.664;2023-02-10T19:26:52;98487.16;;;1.63;94.29
25130;BME280;13308;50.860;13.664;2023-02-10T19:29:17;98476.13;;;1.59;94.12
